Time;durP1;ratioP1;P1;durP2;ratioP2;P2;SDS_P1;SDS_P2;PMS_P1;PMS_P2;Temp;Humidity;BMP_temperature;BMP_pressure;BME280_temperature;BME280_humidity;BME280_pressure;Samples;Min_cycle;Max_cycle;Signal;HPM_P1;HPM_P2
2023/08/27 00:01:27;;;;;;;9.00;7.32;;;14.10;99.90;;;;;;5073022;28;20044;-74
2023/08/27 00:03:52;;;;;;;11.65;7.03;;;13.90;99.90;;;;;;5071638;28;20414;-73
2023/08/27 00:06:18;;;;;;;10.02;7.25;;;14.00;99.90;;;;;;5071519;28;20049;-73
2023/08/27 00:08:43;;;;;;;8.93;7.60;;;14.20;99.90;;;;;;5071297;28;20045;-75
2023/08/27 00:11:09;;;;;;;8.63;7.72;;;14.00;99.90;;;;;;5073020;28;20484;-75
2023/08/27 00:13:34;;;;;;;8.95;7.00;;;13.80;99.90;;;;;;5071681;28;20048;-75
2023/08/27 00:16:00;;;;;;;8.90;7.13;;;13.70;99.90;;;;;;5071502;28;20036;-75
2023/08/27 00:18:26;;;;;;;8.43;7.57;;;13.70;99.90;;;;;;5072579;28;20043;-75
2023/08/27 00:20:51;;;;;;;8.82;7.15;;;14.00;99.90;;;;;;5071656;28;20056;-75
2023/08/27 00:23:17;;;;;;;10.15;7.95;;;13.90;99.90;;;;;;5072467;28;20044;-75
2023/08/27 00:25:43;;;;;;;8.82;7.50;;;13.70;99.90;;;;;;5071146;28;20518;-75
2023/08/27 00:28:12;;;;;;;7.60;6.80;;;13.70;99.90;;;;;;5072290;28;20051;-75
2023/08/27 00:30:37;;;;;;;10.90;9.18;;;14.00;99.90;;;;;;5071103;28;20041;-74
2023/08/27 00:33:03;;;;;;;9.23;7.95;;;13.80;99.90;;;;;;5070881;28;20621;-73
2023/08/27 00:35:29;;;;;;;9.82;7.32;;;13.70;99.90;;;;;;5071021;28;20051;-73
2023/08/27 00:37:54;;;;;;;8.27;7.38;;;13.80;99.90;;;;;;5054306;28;20046;-75
2023/08/27 00:40:20;;;;;;;9.13;7.97;;;13.70;99.90;;;;;;5070627;28;20040;-76
2023/08/27 00:42:45;;;;;;;11.75;8.13;;;13.90;99.90;;;;;;5070874;28;20055;-76
2023/08/27 00:45:11;;;;;;;9.85;8.05;;;13.80;99.90;;;;;;5054403;28;20046;-75
2023/08/27 00:47:38;;;;;;;10.55;7.97;;;13.70;99.90;;;;;;5071582;28;20044;-74
2023/08/27 00:50:06;;;;;;;10.98;8.50;;;13.90;99.90;;;;;;5053800;28;20072;-73
2023/08/27 00:52:32;;;;;;;10.70;8.02;;;13.90;99.90;;;;;;5070845;28;20450;-75
2023/08/27 00:55:00;;;;;;;9.55;7.97;;;13.90;99.90;;;;;;5070703;28;20040;-75
2023/08/27 00:57:26;;;;;;;8.55;7.30;;;13.60;99.90;;;;;;5070466;28;20032;-75
2023/08/27 00:59:53;;;;;;;9.55;8.20;;;13.70;99.90;;;;;;5071459;28;20044;-74
2023/08/27 01:02:19;;;;;;;8.68;7.80;;;13.60;99.90;;;;;;5070417;28;20080;-73
2023/08/27 01:04:44;;;;;;;8.55;7.65;;;13.60;99.90;;;;;;5071816;28;20072;-73
2023/08/27 01:07:36;;;;;;;8.73;7.82;;;13.60;99.90;;;;;;5071743;28;20033;-73
2023/08/27 01:10:19;;;;;;;7.82;7.03;;;13.50;99.90;;;;;;5070530;28;20050;-73
2023/08/27 01:13:01;;;;;;;9.73;8.07;;;13.70;99.90;;;;;;5070283;28;20051;-73
2023/08/27 01:15:28;;;;;;;9.80;8.40;;;13.60;99.90;;;;;;5070530;28;20508;-73
2023/08/27 01:17:55;;;;;;;10.60;7.75;;;13.60;99.90;;;;;;5070305;28;20051;-73
2023/08/27 01:20:22;;;;;;;12.63;9.05;;;13.70;99.90;;;;;;5070187;28;20032;-73
2023/08/27 01:22:47;;;;;;;11.05;8.30;;;13.80;99.90;;;;;;5070162;28;20040;-73
2023/08/27 01:25:18;;;;;;;9.50;8.50;;;13.70;99.90;;;;;;5071709;28;20530;-73
2023/08/27 01:27:50;;;;;;;9.82;8.82;;;13.80;99.90;;;;;;5070182;28;20040;-73
2023/08/27 01:30:29;;;;;;;10.60;8.27;;;13.80;99.90;;;;;;5071404;28;20036;-74
2023/08/27 01:32:54;;;;;;;9.80;8.80;;;13.50;99.90;;;;;;5070267;28;20079;-73
2023/08/27 01:35:20;;;;;;;10.85;8.18;;;13.70;99.90;;;;;;5070298;28;20095;-73
2023/08/27 01:37:46;;;;;;;10.27;9.15;;;13.70;99.90;;;;;;5071359;28;20041;-73
2023/08/27 01:40:12;;;;;;;10.93;8.80;;;13.50;99.90;;;;;;5070417;28;20071;-73
2023/08/27 01:42:37;;;;;;;10.07;8.88;;;13.70;99.90;;;;;;5071365;28;20041;-73
2023/08/27 01:45:09;;;;;;;10.00;8.07;;;13.70;99.90;;;;;;5070100;28;20112;-73
2023/08/27 01:47:35;;;;;;;10.05;8.38;;;13.60;99.90;;;;;;5071423;28;20045;-73
2023/08/27 01:50:01;;;;;;;11.20;8.95;;;13.50;99.90;;;;;;5071396;28;20043;-73
2023/08/27 01:52:26;;;;;;;14.73;9.20;;;13.50;99.90;;;;;;5070986;28;20035;-73
2023/08/27 01:54:52;;;;;;;9.10;8.10;;;13.80;99.90;;;;;;5071373;28;20110;-73
2023/08/27 01:57:17;;;;;;;12.20;8.80;;;13.40;99.90;;;;;;5070211;28;20079;-73
2023/08/27 01:59:43;;;;;;;10.25;8.70;;;13.80;99.90;;;;;;5072540;28;20131;-73
2023/08/27 02:02:08;;;;;;;11.20;9.32;;;13.40;99.90;;;;;;5075185;28;20067;-73
2023/08/27 02:04:34;;;;;;;10.40;9.40;;;13.50;99.90;;;;;;5073945;28;20407;-73
2023/08/27 02:07:00;;;;;;;11.00;8.80;;;13.70;99.90;;;;;;5075156;28;20471;-73
2023/08/27 02:09:25;;;;;;;12.00;9.82;;;13.50;99.90;;;;;;5073762;28;20050;-73
2023/08/27 02:11:52;;;;;;;11.77;9.05;;;13.70;99.90;;;;;;5074844;28;20325;-75
2023/08/27 02:14:18;;;;;;;11.55;9.25;;;13.70;99.90;;;;;;5057142;28;20117;-75
2023/08/27 02:16:44;;;;;;;11.13;9.45;;;13.90;99.90;;;;;;5073709;28;20060;-76
2023/08/27 02:19:09;;;;;;;10.63;9.10;;;13.70;99.90;;;;;;5073550;28;20093;-74
2023/08/27 02:21:35;;;;;;;10.27;8.48;;;13.90;99.90;;;;;;5073644;28;20079;-76
2023/08/27 02:24:00;;;;;;;11.10;9.13;;;13.50;99.90;;;;;;5073547;28;20051;-74
2023/08/27 02:26:26;;;;;;;9.50;8.50;;;13.60;99.90;;;;;;5056821;28;20037;-75
2023/08/27 02:28:52;;;;;;;11.93;9.25;;;13.60;99.90;;;;;;5073143;28;20080;-75
2023/08/27 02:31:18;;;;;;;10.45;9.10;;;13.50;99.90;;;;;;5073497;28;20041;-76
2023/08/27 02:33:46;;;;;;;12.35;9.10;;;13.40;99.90;;;;;;5073319;28;20051;-76
2023/08/27 02:36:12;;;;;;;11.95;8.55;;;13.70;99.90;;;;;;5073314;28;20052;-76
2023/08/27 02:38:37;;;;;;;12.40;10.20;;;13.40;99.90;;;;;;5073222;28;20045;-76
2023/08/27 02:41:03;;;;;;;13.68;9.25;;;13.40;99.90;;;;;;5073182;28;20047;-76
2023/08/27 02:43:29;;;;;;;11.88;8.77;;;13.50;99.90;;;;;;5073131;28;20047;-73
2023/08/27 02:45:54;;;;;;;10.30;9.13;;;13.50;99.90;;;;;;5073189;28;20124;-73
2023/08/27 02:48:20;;;;;;;11.38;10.18;;;13.50;99.90;;;;;;5072597;28;20041;-73
2023/08/27 02:50:46;;;;;;;10.07;8.48;;;13.50;99.90;;;;;;5073243;28;20037;-73
2023/08/27 02:53:11;;;;;;;10.45;8.75;;;13.60;99.90;;;;;;5072358;28;20048;-73
2023/08/27 02:55:37;;;;;;;11.48;9.30;;;13.40;99.90;;;;;;5072705;28;20068;-73
2023/08/27 02:58:03;;;;;;;9.85;8.50;;;13.50;99.90;;;;;;5072803;28;20048;-73
2023/08/27 03:00:30;;;;;;;12.60;9.82;;;13.70;99.90;;;;;;5056309;28;20143;-73
2023/08/27 03:02:56;;;;;;;9.80;8.02;;;13.40;99.90;;;;;;5072411;28;20070;-73
2023/08/27 03:05:22;;;;;;;10.70;8.48;;;13.70;99.90;;;;;;5072832;28;20052;-73
2023/08/27 03:07:48;;;;;;;10.07;8.02;;;13.70;99.90;;;;;;5073826;28;20124;-73
2023/08/27 03:10:14;;;;;;;11.32;8.93;;;13.50;99.90;;;;;;5072204;28;20040;-73
2023/08/27 03:12:39;;;;;;;9.27;7.70;;;13.30;99.90;;;;;;5073020;28;20029;-75
2023/08/27 03:15:05;;;;;;;13.85;8.48;;;13.50;99.90;;;;;;5072940;28;20510;-75
2023/08/27 03:17:31;;;;;;;11.77;8.55;;;13.30;99.90;;;;;;5072442;28;20524;-75
2023/08/27 03:19:57;;;;;;;10.40;8.57;;;13.30;99.90;;;;;;5073726;28;20029;-76
2023/08/27 03:22:22;;;;;;;9.82;8.63;;;13.60;99.90;;;;;;5072259;28;20128;-75
2023/08/27 03:24:48;;;;;;;10.07;8.85;;;13.20;99.90;;;;;;5073635;28;20047;-76
2023/08/27 03:27:13;;;;;;;12.77;9.05;;;13.30;99.90;;;;;;5073689;28;20029;-76
2023/08/27 03:29:39;;;;;;;12.38;9.60;;;13.40;99.90;;;;;;5073435;28;20121;-75
2023/08/27 03:32:05;;;;;;;12.77;8.98;;;13.50;99.90;;;;;;5073359;28;20377;-75
2023/08/27 03:34:31;;;;;;;11.48;9.10;;;13.20;99.90;;;;;;5072323;28;20043;-75
2023/08/27 03:36:57;;;;;;;14.13;9.70;;;13.30;99.90;;;;;;5055421;28;20036;-75
2023/08/27 03:39:23;;;;;;;12.85;9.27;;;13.30;99.90;;;;;;5073246;28;20040;-75
2023/08/27 03:41:48;;;;;;;10.60;9.38;;;13.40;99.90;;;;;;5072268;28;20052;-75
2023/08/27 03:44:14;;;;;;;10.55;9.27;;;13.40;99.90;;;;;;5073462;28;20098;-75
2023/08/27 03:46:40;;;;;;;13.05;9.70;;;13.20;99.90;;;;;;5072191;28;20123;-75
2023/08/27 03:49:06;;;;;;;12.93;9.65;;;13.40;99.90;;;;;;5070392;28;20044;-76
2023/08/27 03:51:31;;;;;;;12.43;8.60;;;13.00;99.90;;;;;;5070981;28;20047;-75
2023/08/27 03:54:00;;;;;;;12.25;9.10;;;13.20;99.90;;;;;;5072851;28;20385;-76
2023/08/27 03:56:26;;;;;;;12.70;9.95;;;13.10;99.90;;;;;;5071737;28;20044;-74
2023/08/27 03:58:52;;;;;;;11.93;9.77;;;13.40;99.90;;;;;;5071390;28;20401;-73
2023/08/27 04:01:18;;;;;;;14.00;10.23;;;13.10;99.90;;;;;;5073012;28;20044;-73
2023/08/27 04:03:43;;;;;;;13.60;10.07;;;13.20;99.90;;;;;;5072801;28;20041;-73
2023/08/27 04:06:12;;;;;;;14.70;10.82;;;13.20;99.90;;;;;;5071594;28;20499;-73
2023/08/27 04:08:38;;;;;;;13.32;10.65;;;13.30;99.90;;;;;;5071215;28;20120;-73
2023/08/27 04:11:04;;;;;;;10.77;9.60;;;13.10;99.90;;;;;;5054953;28;20503;-73
2023/08/27 04:13:30;;;;;;;16.02;10.00;;;13.30;99.90;;;;;;5071333;28;20032;-73
2023/08/27 04:15:59;;;;;;;14.38;10.48;;;13.40;99.90;;;;;;5071597;28;20048;-73
2023/08/27 04:18:26;;;;;;;12.20;9.90;;;13.40;99.90;;;;;;5071174;28;20036;-73
2023/08/27 04:20:51;;;;;;;12.73;9.93;;;13.30;99.90;;;;;;5071292;28;20044;-73
2023/08/27 04:23:17;;;;;;;11.80;9.77;;;13.40;99.90;;;;;;5071058;28;20062;-73
2023/08/27 04:25:46;;;;;;;13.50;10.38;;;13.00;99.90;;;;;;5071221;28;20037;-73
2023/08/27 04:28:12;;;;;;;15.05;11.23;;;13.40;99.90;;;;;;5070903;28;20115;-73
2023/08/27 04:30:38;;;;;;;13.23;10.85;;;13.00;99.90;;;;;;5070970;28;20044;-73
2023/08/27 04:33:05;;;;;;;12.63;9.80;;;13.30;99.90;;;;;;5072122;28;20115;-73
2023/08/27 04:35:31;;;;;;;13.50;11.30;;;13.20;99.90;;;;;;5071843;28;20127;-73
2023/08/27 04:37:57;;;;;;;13.30;10.32;;;13.00;99.90;;;;;;5070903;28;20105;-75
2023/08/27 04:40:22;;;;;;;13.38;10.88;;;13.10;99.90;;;;;;5070890;28;20495;-75
2023/08/27 04:42:48;;;;;;;12.40;10.73;;;13.20;99.90;;;;;;5069717;28;20094;-74
2023/08/27 04:45:14;;;;;;;13.65;10.75;;;13.00;99.90;;;;;;5069736;28;20475;-74
2023/08/27 04:47:40;;;;;;;15.15;11.00;;;13.20;99.90;;;;;;5070314;28;20041;-74
2023/08/27 04:50:07;;;;;;;12.20;10.23;;;13.30;99.90;;;;;;5053504;28;20040;-74
2023/08/27 04:52:33;;;;;;;12.63;10.02;;;13.40;99.90;;;;;;5068446;22;20040;-69
2023/08/27 04:54:59;;;;;;;15.02;11.02;;;13.20;99.90;;;;;;5070409;28;20047;-69
2023/08/27 04:57:25;;;;;;;12.23;9.93;;;13.30;99.90;;;;;;5069975;28;20044;-69
2023/08/27 04:59:50;;;;;;;14.20;10.43;;;13.10;99.90;;;;;;5068734;28;20055;-69
2023/08/27 05:02:16;;;;;;;15.13;10.23;;;13.30;99.90;;;;;;5069991;28;20592;-69
2023/08/27 05:04:43;;;;;;;12.63;9.55;;;13.30;99.90;;;;;;5069978;28;20110;-69
2023/08/27 05:07:10;;;;;;;12.00;9.40;;;13.10;99.90;;;;;;5070053;28;20403;-69
2023/08/27 05:09:36;;;;;;;12.13;10.27;;;13.10;99.90;;;;;;5070223;28;20059;-69
2023/08/27 05:12:01;;;;;;;12.73;9.82;;;13.10;99.90;;;;;;5071907;28;20404;-69
2023/08/27 05:14:27;;;;;;;12.80;10.25;;;13.20;99.90;;;;;;5071958;28;20068;-69
2023/08/27 05:16:52;;;;;;;14.07;9.73;;;13.40;99.90;;;;;;5071891;28;20060;-69
2023/08/27 05:19:18;;;;;;;13.02;9.60;;;13.40;99.90;;;;;;5053832;28;20045;-69
2023/08/27 05:21:44;;;;;;;10.60;9.10;;;13.30;99.90;;;;;;5051964;28;20562;-69
2023/08/27 05:24:09;;;;;;;13.30;9.02;;;13.10;99.90;;;;;;5051502;28;20072;-69
2023/08/27 05:26:35;;;;;;;11.88;8.95;;;13.30;99.90;;;;;;5051864;28;20090;-69
2023/08/27 05:29:00;;;;;;;11.93;9.57;;;13.40;99.90;;;;;;5051299;28;20492;-70
2023/08/27 05:31:26;;;;;;;14.00;9.18;;;13.10;99.90;;;;;;5051671;28;20051;-69
2023/08/27 05:33:52;;;;;;;11.60;9.93;;;13.10;99.90;;;;;;5052237;28;20037;-69
2023/08/27 05:36:18;;;;;;;11.80;9.55;;;13.30;99.90;;;;;;5058426;28;20076;-70
2023/08/27 05:38:43;;;;;;;11.05;9.10;;;13.10;99.90;;;;;;5058267;28;20075;-69
2023/08/27 05:41:09;;;;;;;12.25;8.70;;;13.40;99.90;;;;;;5056931;28;20462;-69
2023/08/27 05:43:34;;;;;;;10.90;9.77;;;13.20;99.90;;;;;;5058248;28;20072;-69
2023/08/27 05:46:00;;;;;;;10.70;9.60;;;13.30;99.90;;;;;;5058054;28;20048;-69
2023/08/27 05:48:26;;;;;;;12.63;9.32;;;13.30;99.90;;;;;;5057549;28;20044;-69
2023/08/27 05:50:51;;;;;;;10.70;9.30;;;13.80;99.90;;;;;;5058013;28;20041;-69
2023/08/27 05:53:17;;;;;;;11.75;10.20;;;14.00;99.90;;;;;;5057992;28;20044;-69
2023/08/27 05:55:45;;;;;;;12.93;10.13;;;14.10;99.90;;;;;;5058147;28;20032;-69
2023/08/27 05:58:11;;;;;;;12.82;10.00;;;14.30;99.90;;;;;;5057837;28;20045;-69
2023/08/27 06:00:36;;;;;;;16.67;10.95;;;14.20;99.90;;;;;;5058022;28;20052;-69
2023/08/27 06:03:03;;;;;;;12.10;9.63;;;14.60;99.90;;;;;;5057757;28;20385;-69
2023/08/27 06:05:29;;;;;;;11.80;9.60;;;15.00;99.90;;;;;;5056591;28;20128;-69
2023/08/27 06:07:54;;;;;;;14.60;10.32;;;15.30;99.90;;;;;;5057893;28;20121;-69
2023/08/27 06:10:20;;;;;;;13.70;10.57;;;15.70;99.90;;;;;;5057868;28;20500;-69
2023/08/27 06:12:46;;;;;;;13.25;10.15;;;15.60;99.90;;;;;;5057948;28;20723;-69
2023/08/27 06:15:12;;;;;;;11.63;9.15;;;15.60;99.90;;;;;;5057845;28;20044;-69
2023/08/27 06:17:37;;;;;;;9.68;8.20;;;15.80;99.90;;;;;;5057610;28;20076;-69
2023/08/27 06:20:03;;;;;;;10.77;7.53;;;15.40;99.90;;;;;;5057806;28;20033;-69
2023/08/27 06:22:29;;;;;;;8.40;7.25;;;15.40;99.90;;;;;;5057859;28;20037;-69
2023/08/27 06:24:54;;;;;;;9.50;7.63;;;15.50;99.90;;;;;;5057796;28;20083;-69
2023/08/27 06:27:20;;;;;;;10.20;7.75;;;15.30;99.90;;;;;;5057662;28;20086;-69
2023/08/27 06:29:45;;;;;;;9.55;7.07;;;15.10;99.90;;;;;;5057511;28;20079;-69
2023/08/27 06:32:12;;;;;;;10.48;8.48;;;15.10;99.90;;;;;;5057427;28;20569;-69
2023/08/27 06:34:38;;;;;;;9.98;7.72;;;15.10;99.90;;;;;;5057898;28;20040;-69
2023/08/27 06:37:03;;;;;;;10.55;7.25;;;14.80;99.90;;;;;;5057670;28;20534;-69
2023/08/27 06:39:29;;;;;;;9.50;7.00;;;15.20;99.90;;;;;;5057432;28;20041;-69
2023/08/27 06:41:55;;;;;;;8.90;6.60;;;15.10;99.90;;;;;;5057621;28;20048;-69
2023/08/27 06:44:20;;;;;;;10.38;7.15;;;14.60;99.90;;;;;;5057514;28;20072;-69
2023/08/27 06:46:46;;;;;;;15.35;7.28;;;14.90;99.90;;;;;;5053636;28;20458;-68
2023/08/27 06:49:11;;;;;;;12.00;7.82;;;14.90;99.90;;;;;;5068037;28;20042;-69
2023/08/27 06:51:37;;;;;;;10.90;7.03;;;14.60;99.90;;;;;;5073962;28;20075;-69
2023/08/27 06:54:04;;;;;;;11.18;6.97;;;14.80;99.90;;;;;;5073378;28;20074;-69
2023/08/27 06:56:29;;;;;;;10.13;7.00;;;14.70;99.90;;;;;;5073904;28;20036;-69
2023/08/27 06:58:55;;;;;;;10.50;7.30;;;14.50;99.90;;;;;;5071129;28;20392;-69
2023/08/27 07:01:20;;;;;;;10.27;7.18;;;14.50;99.90;;;;;;5073742;28;20389;-69
2023/08/27 07:03:47;;;;;;;7.80;6.88;;;14.70;99.90;;;;;;5073271;28;20400;-69
2023/08/27 07:06:13;;;;;;;12.15;6.90;;;14.70;99.90;;;;;;5073715;28;20038;-69
2023/08/27 07:08:38;;;;;;;12.90;7.30;;;14.30;99.90;;;;;;5073657;28;20036;-70
2023/08/27 07:11:04;;;;;;;8.60;6.07;;;14.70;99.90;;;;;;5065650;28;20109;-70
2023/08/27 07:13:30;;;;;;;11.73;7.07;;;14.80;99.90;;;;;;5073785;28;20029;-69
2023/08/27 07:15:57;;;;;;;10.18;6.53;;;14.70;99.90;;;;;;5073765;28;20093;-69
2023/08/27 07:18:23;;;;;;;11.73;7.00;;;14.80;99.90;;;;;;5073705;28;20125;-69
2023/08/27 07:20:48;;;;;;;7.32;5.93;;;14.40;99.90;;;;;;5073980;28;20043;-69
2023/08/27 07:23:15;;;;;;;9.43;5.57;;;14.70;99.90;;;;;;5073611;28;20036;-69
2023/08/27 07:25:41;;;;;;;9.23;5.88;;;14.40;99.90;;;;;;5073762;28;20072;-70
2023/08/27 07:28:07;;;;;;;6.45;5.70;;;14.80;99.90;;;;;;5073476;28;20114;-69
2023/08/27 07:30:33;;;;;;;7.25;5.20;;;14.50;99.90;;;;;;5073607;28;20093;-70
2023/08/27 07:32:58;;;;;;;7.47;5.32;;;14.40;99.90;;;;;;5073408;28;20040;-69
2023/08/27 07:35:24;;;;;;;7.32;5.40;;;14.40;99.90;;;;;;5073609;28;20119;-69
2023/08/27 07:37:50;;;;;;;6.90;4.53;;;14.90;99.90;;;;;;5072608;28;20051;-69
2023/08/27 07:40:16;;;;;;;6.57;5.50;;;14.80;99.90;;;;;;5068424;28;20051;-69
2023/08/27 07:42:41;;;;;;;9.68;4.78;;;14.70;99.90;;;;;;5066182;28;20036;-69
2023/08/27 07:45:07;;;;;;;7.40;4.32;;;14.70;99.90;;;;;;5064897;28;20037;-69
2023/08/27 07:47:34;;;;;;;6.72;4.40;;;14.50;99.90;;;;;;5073357;28;20044;-69
2023/08/27 07:49:59;;;;;;;6.88;4.25;;;14.40;99.90;;;;;;5073213;28;20068;-69
2023/08/27 07:52:25;;;;;;;6.93;4.10;;;14.80;99.90;;;;;;5073088;28;20492;-69
2023/08/27 07:54:50;;;;;;;6.60;4.35;;;14.50;99.90;;;;;;5064798;28;20032;-69
2023/08/27 07:57:16;;;;;;;6.43;4.13;;;14.40;99.90;;;;;;5072701;28;20278;-70
2023/08/27 07:59:43;;;;;;;5.25;4.07;;;14.70;99.90;;;;;;5072683;28;20056;-70
2023/08/27 08:02:08;;;;;;;4.47;3.42;;;14.90;99.90;;;;;;5064729;28;20036;-69
2023/08/27 08:04:34;;;;;;;4.53;3.70;;;14.80;99.90;;;;;;5071801;28;20101;-69
2023/08/27 08:07:00;;;;;;;5.80;3.50;;;15.00;99.90;;;;;;5072918;28;20040;-69
2023/08/27 08:09:25;;;;;;;5.38;3.90;;;14.90;99.90;;;;;;5072756;28;20385;-69
2023/08/27 08:11:51;;;;;;;4.97;3.80;;;15.40;99.90;;;;;;5072792;28;20040;-69
2023/08/27 08:14:17;;;;;;;5.72;3.47;;;15.50;99.90;;;;;;5072579;28;20118;-69
2023/08/27 08:16:43;;;;;;;4.35;2.80;;;16.10;99.90;;;;;;5072840;28;20079;-69
2023/08/27 08:19:09;;;;;;;6.70;3.15;;;16.20;99.90;;;;;;5072368;28;20040;-69
2023/08/27 08:21:35;;;;;;;4.05;2.45;;;16.80;99.90;;;;;;5065352;28;20047;-69
2023/08/27 08:24:01;;;;;;;4.05;2.42;;;16.80;99.90;;;;;;5071594;28;20062;-69
2023/08/27 08:26:26;;;;;;;3.97;2.08;;;17.50;99.90;;;;;;5072532;28;20127;-69
2023/08/27 08:28:52;;;;;;;2.63;1.58;;;17.70;99.90;;;;;;5072131;28;20063;-69
2023/08/27 08:31:17;;;;;;;4.18;1.80;;;17.70;99.90;;;;;;5072347;28;20036;-69
2023/08/27 08:33:43;;;;;;;3.08;1.45;;;18.10;99.90;;;;;;5072447;28;20037;-69
2023/08/27 08:36:08;;;;;;;2.45;1.38;;;18.50;99.90;;;;;;5072429;28;20036;-70
2023/08/27 08:38:34;;;;;;;2.35;1.20;;;18.50;99.90;;;;;;5072111;28;20119;-69
2023/08/27 08:41:02;;;;;;;2.13;1.40;;;18.80;99.90;;;;;;5072308;28;20049;-69
2023/08/27 08:43:43;;;;;;;2.55;1.50;;;18.60;99.90;;;;;;5072120;28;20116;-69
2023/08/27 08:46:10;;;;;;;3.50;1.50;;;19.00;99.90;;;;;;5072299;28;20040;-69
2023/08/27 08:48:40;;;;;;;2.97;1.40;;;18.80;99.90;;;;;;5071940;28;20040;-69
2023/08/27 08:51:12;;;;;;;3.28;1.90;;;19.10;99.90;;;;;;5072058;28;20554;-69
2023/08/27 08:53:43;;;;;;;4.55;2.05;;;19.30;99.90;;;;;;5071912;28;20044;-69
2023/08/27 08:56:15;;;;;;;3.40;1.60;;;19.30;99.90;;;;;;5071921;28;20043;-69
2023/08/27 08:58:44;;;;;;;1.88;1.60;;;19.80;99.90;;;;;;5071853;28;20478;-69
2023/08/27 09:01:10;;;;;;;2.60;1.83;;;19.90;99.90;;;;;;5072007;28;20128;-69
2023/08/27 09:03:37;;;;;;;4.18;2.00;;;19.60;99.90;;;;;;5071960;28;20075;-69
2023/08/27 09:06:03;;;;;;;3.08;1.80;;;19.90;99.90;;;;;;5071811;28;20049;-69
2023/08/27 09:08:31;;;;;;;3.30;2.15;;;20.00;99.90;;;;;;5070001;28;20044;-69
2023/08/27 09:10:56;;;;;;;2.63;1.95;;;20.10;99.90;;;;;;5071670;28;20048;-69
2023/08/27 09:13:22;;;;;;;4.78;2.35;;;20.00;99.90;;;;;;5071627;28;20044;-69
2023/08/27 09:15:51;;;;;;;3.92;2.10;;;20.00;99.90;;;;;;5071785;28;20040;-69
2023/08/27 09:18:17;;;;;;;3.55;2.38;;;20.10;99.90;;;;;;5071536;28;20040;-69
2023/08/27 09:20:43;;;;;;;3.75;2.17;;;20.40;99.90;;;;;;5071761;28;20115;-68
2023/08/27 09:23:09;;;;;;;4.30;1.95;;;20.20;99.90;;;;;;5071470;28;20381;-67
2023/08/27 09:25:36;;;;;;;6.07;2.20;;;20.40;99.90;;;;;;5071776;28;20147;-67
2023/08/27 09:28:02;;;;;;;3.72;2.08;;;20.50;99.90;;;;;;5071459;28;20047;-67
2023/08/27 09:30:28;;;;;;;3.38;2.35;;;19.90;99.90;;;;;;5071416;28;20041;-67
2023/08/27 09:32:54;;;;;;;3.03;1.90;;;19.80;99.90;;;;;;5071480;28;20055;-67
2023/08/27 09:35:19;;;;;;;2.70;1.90;;;19.40;99.90;;;;;;5071471;28;20044;-67
2023/08/27 09:37:45;;;;;;;3.70;1.80;;;19.50;99.90;;;;;;5071340;28;20040;-67
2023/08/27 09:40:14;;;;;;;4.82;2.05;;;19.90;99.90;;;;;;5071342;28;20039;-67
2023/08/27 09:42:40;;;;;;;3.38;2.25;;;19.80;99.90;;;;;;5071416;28;20051;-67
2023/08/27 09:45:06;;;;;;;3.88;2.20;;;19.40;99.90;;;;;;5071491;28;20029;-67
2023/08/27 09:47:36;;;;;;;4.25;2.45;;;19.30;99.90;;;;;;5071360;28;20037;-67
2023/08/27 09:50:07;;;;;;;3.15;1.80;;;19.10;99.90;;;;;;5058479;28;20054;-67
2023/08/27 09:52:33;;;;;;;3.78;2.08;;;18.80;99.90;;;;;;5051124;28;20496;-67
2023/08/27 09:54:59;;;;;;;2.55;2.03;;;19.40;99.90;;;;;;5051366;28;20064;-68
2023/08/27 09:57:25;;;;;;;5.15;1.65;;;19.40;99.90;;;;;;5051356;28;20037;-67
2023/08/27 09:59:52;;;;;;;3.08;1.70;;;19.30;99.90;;;;;;5051191;28;20086;-67
2023/08/27 10:02:19;;;;;;;2.13;1.70;;;19.50;99.90;;;;;;5051279;28;20045;-68
2023/08/27 10:04:53;;;;;;;2.05;1.35;;;19.60;99.90;;;;;;5051161;28;20044;-67
2023/08/27 10:07:19;;;;;;;3.30;1.88;;;19.60;99.90;;;;;;5051302;28;20083;-67
2023/08/27 10:09:51;;;;;;;2.35;1.20;;;19.60;99.90;;;;;;5051092;28;20049;-67
2023/08/27 10:12:18;;;;;;;2.80;1.20;;;19.90;99.90;;;;;;5051270;28;20045;-68
2023/08/27 10:14:45;;;;;;;2.78;1.42;;;19.60;99.90;;;;;;5051427;28;20437;-67
2023/08/27 10:17:12;;;;;;;2.85;1.27;;;20.00;99.90;;;;;;5051024;28;20032;-67
2023/08/27 10:19:38;;;;;;;2.63;1.10;;;19.60;99.90;;;;;;5051246;28;20041;-67
2023/08/27 10:22:05;;;;;;;2.88;1.10;;;19.80;99.90;;;;;;5054689;28;20048;-68
2023/08/27 10:24:31;;;;;;;2.05;1.02;;;19.60;99.90;;;;;;5054382;28;20176;-67
2023/08/27 10:26:58;;;;;;;2.72;1.10;;;19.60;99.90;;;;;;5054787;28;20044;-68
2023/08/27 10:29:24;;;;;;;4.05;1.70;;;19.50;99.90;;;;;;5054537;28;20048;-68
2023/08/27 10:31:51;;;;;;;2.95;1.40;;;19.40;99.90;;;;;;5054734;28;20044;-68
2023/08/27 10:34:17;;;;;;;3.40;1.17;;;19.50;99.90;;;;;;5054840;28;20045;-67
2023/08/27 10:36:45;;;;;;;2.25;1.25;;;19.50;99.90;;;;;;5054732;28;20381;-68
2023/08/27 10:39:12;;;;;;;2.83;1.15;;;19.60;99.90;;;;;;5054482;28;20071;-68
2023/08/27 10:41:38;;;;;;;4.97;1.58;;;19.80;99.90;;;;;;5054585;28;20041;-67
2023/08/27 10:44:05;;;;;;;3.35;1.50;;;19.60;99.90;;;;;;5054516;28;20067;-68
2023/08/27 10:46:30;;;;;;;2.42;1.52;;;19.60;99.90;;;;;;5054589;28;20045;-68
2023/08/27 10:48:56;;;;;;;2.17;1.50;;;19.50;99.90;;;;;;5054419;28;20052;-73
2023/08/27 10:51:30;;;;;;;3.10;1.60;;;19.50;99.90;;;;;;5054475;28;20048;-73
2023/08/27 10:53:57;;;;;;;2.67;1.80;;;19.70;99.90;;;;;;5076195;22;20048;-71
2023/08/27 10:56:47;;;;;;;3.65;2.08;;;19.80;99.90;;;;;;5073043;28;20526;-72
2023/08/27 10:59:26;;;;;;;4.43;2.05;;;19.70;99.90;;;;;;5072619;28;20174;-72
2023/08/27 11:02:10;;;;;;;6.68;2.00;;;19.70;99.90;;;;;;5056230;28;20048;-72
2023/08/27 11:04:41;;;;;;;4.38;1.67;;;19.50;99.90;;;;;;5073934;28;20522;-72
2023/08/27 11:07:15;;;;;;;3.00;2.05;;;19.30;99.90;;;;;;5072748;28;20133;-72
2023/08/27 11:09:47;;;;;;;5.30;2.13;;;19.10;99.90;;;;;;5070953;28;20063;-73
2023/08/27 11:12:39;;;;;;;4.30;2.30;;;19.00;99.90;;;;;;5078467;28;20037;-73
2023/08/27 11:15:13;;;;;;;3.78;2.40;;;19.10;99.90;;;;;;5046075;28;20492;-72
2023/08/27 11:17:39;;;;;;;4.88;2.08;;;18.90;99.90;;;;;;5071762;28;20522;-75
2023/08/27 11:20:25;;;;;;;4.70;1.92;;;19.00;99.90;;;;;;5072891;28;20036;-73
2023/08/27 11:22:59;;;;;;;2.80;2.05;;;19.20;99.90;;;;;;5063573;28;20033;-73
2023/08/27 11:25:26;;;;;;;2.38;1.80;;;19.20;99.90;;;;;;5058452;28;20033;-73
2023/08/27 11:27:53;;;;;;;5.40;1.83;;;19.30;99.90;;;;;;5061179;28;20032;-72
2023/08/27 11:30:18;;;;;;;2.90;2.35;;;19.30;99.90;;;;;;5039233;28;22086;-73
2023/08/27 11:32:44;;;;;;;3.63;1.90;;;19.20;99.90;;;;;;5051867;28;20039;-75
2023/08/27 11:35:11;;;;;;;3.10;1.65;;;19.10;99.90;;;;;;5073297;28;20036;-71
2023/08/27 11:37:38;;;;;;;4.88;2.05;;;19.10;99.90;;;;;;5073027;28;20048;-72
2023/08/27 11:40:14;;;;;;;4.80;1.75;;;19.00;99.90;;;;;;5073205;28;20044;-72
2023/08/27 11:42:54;;;;;;;3.00;1.67;;;19.00;99.90;;;;;;5060657;28;20029;-72
2023/08/27 11:45:30;;;;;;;2.10;1.58;;;18.90;99.90;;;;;;5071030;28;20052;-72
2023/08/27 11:47:57;;;;;;;2.95;1.75;;;18.90;99.90;;;;;;5072917;28;20040;-74
2023/08/27 11:50:23;;;;;;;4.88;1.83;;;19.10;99.90;;;;;;5071582;28;20033;-72
2023/08/27 11:52:49;;;;;;;4.03;2.10;;;19.30;99.90;;;;;;5071643;28;20036;-73
2023/08/27 11:55:20;;;;;;;3.25;1.95;;;19.40;99.90;;;;;;5072993;28;20040;-75
2023/08/27 11:57:46;;;;;;;2.83;1.95;;;19.70;99.90;;;;;;5072911;28;20557;-72
2023/08/27 12:00:12;;;;;;;5.70;2.05;;;19.70;99.90;;;;;;5071521;28;20036;-73
2023/08/27 12:02:39;;;;;;;1.73;1.45;;;19.80;99.90;;;;;;5071687;28;20040;-73
2023/08/27 12:05:07;;;;;;;1.55;1.08;;;19.80;99.90;;;;;;5071904;28;20377;-72
2023/08/27 12:07:34;;;;;;;5.28;2.05;;;19.90;99.90;;;;;;5054831;28;20595;-73
2023/08/27 12:10:07;;;;;;;4.10;2.10;;;19.70;99.90;;;;;;5071193;28;20068;-72
2023/08/27 12:12:36;;;;;;;5.03;2.05;;;19.60;99.90;;;;;;5071952;28;20380;-72
2023/08/27 12:15:02;;;;;;;3.63;1.88;;;19.50;99.90;;;;;;5072937;28;20446;-72
2023/08/27 12:17:33;;;;;;;3.25;1.65;;;19.50;99.90;;;;;;5072739;28;20044;-72
2023/08/27 12:19:58;;;;;;;10.15;4.05;;;19.40;99.90;;;;;;5071382;28;20045;-71
2023/08/27 12:22:24;;;;;;;8.00;3.72;;;18.90;99.90;;;;;;5072816;28;20044;-71
2023/08/27 12:24:49;;;;;;;9.65;4.05;;;18.70;99.90;;;;;;5066391;28;20036;-69
2023/08/27 12:27:17;;;;;;;7.63;3.90;;;18.00;99.90;;;;;;5065860;28;20047;-70
2023/08/27 12:29:45;;;;;;;6.57;3.42;;;17.80;99.90;;;;;;5068869;28;20044;-70
2023/08/27 12:32:11;;;;;;;4.97;3.80;;;17.70;99.90;;;;;;5057908;28;20039;-70
2023/08/27 12:34:38;;;;;;;8.13;4.97;;;17.20;99.90;;;;;;5051475;28;20045;-71
2023/08/27 12:37:05;;;;;;;7.13;5.30;;;17.10;99.90;;;;;;5051086;28;20567;-69
2023/08/27 12:39:32;;;;;;;4.57;2.40;;;17.00;99.90;;;;;;5052125;28;20044;-69